Terminal Aerodrome Forecast
Issued by NWS Knoxville/Tri Cities, TN

Home | Current Version | Previous Version | Text Only | Print | Product List | Glossary On
Versions: 1 2 3 4 5 6 7 8 9 10 11 12 13 14 15 16 17 18 19 20 21 22 23 24 25 26
000
FTUS44 KMRX 212320
TAFTRI
TAF
KTRI 212320Z 2200/2224 00000KT P6SM SCT040
     FM220600 07003KT P6SM OVC040
     FM220900 00000KT 4SM BR OVC030
     FM221400 10005KT P6SM OVC040
     FM221800 09003KT P6SM OVC050=

USA.gov is the U.S. government's official web portal to all federal, state and local government web resources and services.